Time;durP1;ratioP1;P1;durP2;ratioP2;P2;SDS_P1;SDS_P2;PMS_P1;PMS_P2;Temp;Humidity;BMP_temperature;BMP_pressure;BME280_temperature;BME280_humidity;BME280_pressure;Samples;Min_cycle;Max_cycle;Signal;HPM_P1;HPM_P2
2021/07/07 00:02:04;;;;;;;3.72;1.00;;;25.30;93.20;;;;;;4993339;28;20045;-72
2021/07/07 00:04:33;;;;;;;5.63;0.93;;;25.30;93.30;;;;;;4982701;28;20034;-72
2021/07/07 00:07:01;;;;;;;2.25;0.77;;;25.20;93.40;;;;;;5013627;28;20037;-72
2021/07/07 00:09:30;;;;;;;1.60;0.70;;;25.20;93.60;;;;;;4998015;28;20518;-72
2021/07/07 00:11:59;;;;;;;2.03;0.70;;;25.10;93.60;;;;;;5001164;28;20084;-72
2021/07/07 00:14:27;;;;;;;1.42;0.63;;;25.10;93.80;;;;;;4996531;28;20056;-72
2021/07/07 00:16:55;;;;;;;2.08;0.60;;;25.10;93.60;;;;;;4979502;28;20056;-73
2021/07/07 00:19:23;;;;;;;1.55;0.70;;;25.20;93.30;;;;;;5000017;28;20518;-73
2021/07/07 00:21:58;;;;;;;0.77;0.60;;;25.20;93.10;;;;;;4993241;28;20683;-72
2021/07/07 00:24:28;;;;;;;1.92;0.60;;;25.20;93.20;;;;;;4995686;28;20095;-73
2021/07/07 00:26:57;;;;;;;2.03;0.60;;;25.10;93.40;;;;;;4995570;28;20038;-72
2021/07/07 00:29:26;;;;;;;2.25;0.68;;;25.10;93.50;;;;;;4995899;28;20050;-73
2021/07/07 00:31:54;;;;;;;1.27;0.70;;;24.90;93.70;;;;;;4992233;28;20062;-73
2021/07/07 00:34:22;;;;;;;1.40;0.75;;;24.90;93.90;;;;;;4998077;28;20049;-72
2021/07/07 00:36:50;;;;;;;3.22;0.70;;;24.90;94.00;;;;;;5003470;28;20080;-73
2021/07/07 00:39:19;;;;;;;3.47;1.13;;;25.00;93.90;;;;;;4994257;28;20038;-73
2021/07/07 00:41:47;;;;;;;1.38;0.90;;;24.90;93.90;;;;;;4995660;28;20315;-73
2021/07/07 00:44:16;;;;;;;1.17;0.60;;;24.90;93.90;;;;;;5011341;28;20112;-73
2021/07/07 00:46:46;;;;;;;2.95;0.93;;;25.00;93.90;;;;;;4993062;28;20604;-73
2021/07/07 00:49:16;;;;;;;2.90;0.85;;;25.00;94.00;;;;;;4982433;28;20407;-73
2021/07/07 00:51:45;;;;;;;2.45;0.63;;;24.90;94.10;;;;;;4990785;28;20061;-74
2021/07/07 00:54:15;;;;;;;3.80;0.93;;;24.80;94.40;;;;;;4991413;28;20045;-74
2021/07/07 00:56:44;;;;;;;1.60;0.88;;;24.70;94.60;;;;;;4989206;28;20046;-74
2021/07/07 00:59:15;;;;;;;1.90;0.80;;;24.60;95.00;;;;;;4979239;28;20697;-73
2021/07/07 01:01:44;;;;;;;0.93;0.70;;;24.70;94.90;;;;;;4992221;28;20403;-74
2021/07/07 01:04:12;;;;;;;2.30;0.73;;;24.70;95.00;;;;;;4996598;28;20452;-74
2021/07/07 01:06:40;;;;;;;1.27;0.80;;;24.70;94.90;;;;;;4998806;28;20060;-74
2021/07/07 01:09:08;;;;;;;1.83;1.00;;;24.80;94.80;;;;;;4995975;28;20053;-74
2021/07/07 01:11:36;;;;;;;0.75;0.60;;;24.70;96.10;;;;;;4996968;28;20060;-74
2021/07/07 01:14:05;;;;;;;2.60;0.90;;;24.60;96.60;;;;;;4998579;28;20065;-74
2021/07/07 01:16:34;;;;;;;2.60;0.82;;;24.60;96.10;;;;;;5000795;28;20045;-74
2021/07/07 01:19:03;;;;;;;2.22;0.98;;;24.70;95.50;;;;;;4997976;28;20539;-74
2021/07/07 01:21:34;;;;;;;2.25;0.90;;;24.70;95.30;;;;;;4996430;28;20262;-73
2021/07/07 01:24:04;;;;;;;2.60;0.85;;;24.70;95.10;;;;;;5000724;28;20043;-74
2021/07/07 01:26:32;;;;;;;1.98;0.90;;;24.70;95.00;;;;;;4982681;28;20057;-74
2021/07/07 01:29:00;;;;;;;1.10;0.80;;;24.60;95.00;;;;;;4998826;28;20038;-74
2021/07/07 01:31:29;;;;;;;1.63;0.90;;;24.60;95.10;;;;;;4995401;28;20216;-74
2021/07/07 01:33:57;;;;;;;1.25;0.70;;;24.60;95.20;;;;;;5000827;28;20038;-74
2021/07/07 01:36:25;;;;;;;2.78;0.70;;;24.60;95.00;;;;;;5000801;28;20034;-74
2021/07/07 01:38:54;;;;;;;2.05;0.70;;;24.60;95.40;;;;;;4980724;28;20050;-74
2021/07/07 01:41:25;;;;;;;1.17;0.60;;;24.50;95.70;;;;;;4992016;28;20034;-74
2021/07/07 01:43:53;;;;;;;2.35;0.98;;;24.50;95.90;;;;;;4993036;28;20554;-74
2021/07/07 01:46:21;;;;;;;2.85;0.70;;;24.50;96.00;;;;;;4996410;28;20393;-74
2021/07/07 01:48:50;;;;;;;1.40;0.80;;;24.40;96.20;;;;;;4986675;28;20139;-73
2021/07/07 01:51:18;;;;;;;1.65;1.00;;;24.40;96.30;;;;;;5015741;28;20051;-74
2021/07/07 01:53:47;;;;;;;2.08;0.70;;;24.30;96.50;;;;;;5000518;28;20096;-74
2021/07/07 01:56:15;;;;;;;2.60;0.95;;;24.20;96.70;;;;;;4999500;28;20045;-74
2021/07/07 01:58:45;;;;;;;1.35;0.80;;;24.20;96.70;;;;;;4997398;28;20057;-74
2021/07/07 02:01:14;;;;;;;5.57;1.00;;;24.20;96.70;;;;;;4990700;28;20072;-74
2021/07/07 02:03:42;;;;;;;1.75;1.02;;;24.20;96.70;;;;;;4982102;28;20471;-74
2021/07/07 02:06:11;;;;;;;1.38;0.80;;;24.20;96.70;;;;;;4994326;28;20099;-74
2021/07/07 02:08:39;;;;;;;3.00;1.27;;;24.10;96.70;;;;;;5000859;28;20037;-74
2021/07/07 02:11:08;;;;;;;3.97;0.80;;;24.10;96.70;;;;;;4997113;28;20499;-74
2021/07/07 02:13:36;;;;;;;3.17;0.90;;;24.00;96.70;;;;;;5002036;28;20053;-74
2021/07/07 02:16:06;;;;;;;3.70;1.02;;;23.90;96.70;;;;;;4996020;28;20503;-73
2021/07/07 02:18:35;;;;;;;4.05;1.02;;;23.90;96.70;;;;;;5000774;28;20037;-74
2021/07/07 02:21:04;;;;;;;5.35;1.33;;;23.90;96.70;;;;;;5001760;28;20037;-73
2021/07/07 02:23:32;;;;;;;3.63;1.00;;;23.60;96.70;;;;;;4997675;28;20049;-73
2021/07/07 02:26:01;;;;;;;5.68;1.42;;;23.60;96.70;;;;;;4995039;28;20057;-73
2021/07/07 02:28:29;;;;;;;2.25;0.90;;;23.60;96.70;;;;;;4999365;28;20117;-73
2021/07/07 02:30:57;;;;;;;3.22;1.10;;;23.60;96.70;;;;;;4999809;28;20041;-74
2021/07/07 02:33:27;;;;;;;2.45;1.13;;;23.60;96.70;;;;;;4998158;28;20038;-73
2021/07/07 02:35:56;;;;;;;2.75;1.00;;;23.60;96.70;;;;;;5007676;28;20046;-74
2021/07/07 02:38:25;;;;;;;2.78;0.80;;;23.60;96.70;;;;;;4991368;28;20038;-74
2021/07/07 02:40:58;;;;;;;1.52;0.70;;;23.70;96.70;;;;;;4993891;28;20038;-74
2021/07/07 02:43:27;;;;;;;1.90;0.80;;;23.50;96.70;;;;;;4998303;28;20150;-73
2021/07/07 02:46:01;;;;;;;1.73;0.85;;;23.40;96.70;;;;;;4998784;28;20033;-73
2021/07/07 02:48:31;;;;;;;3.33;0.80;;;23.40;96.70;;;;;;4995689;28;20041;-74
2021/07/07 02:50:59;;;;;;;2.95;1.30;;;23.50;96.70;;;;;;5009549;28;20145;-74
2021/07/07 02:53:27;;;;;;;3.50;0.73;;;23.50;96.70;;;;;;4995411;28;20035;-73
2021/07/07 02:55:55;;;;;;;3.28;0.85;;;23.60;96.70;;;;;;5000831;28;20527;-73
2021/07/07 02:58:23;;;;;;;1.52;0.80;;;23.60;96.70;;;;;;4997121;28;20041;-73
2021/07/07 03:00:51;;;;;;;1.77;0.80;;;23.60;96.70;;;;;;4993860;28;20466;-74
2021/07/07 03:03:20;;;;;;;1.55;1.00;;;23.60;96.70;;;;;;5003526;28;20034;-74
2021/07/07 03:05:53;;;;;;;2.15;0.95;;;23.50;96.70;;;;;;4999931;28;20076;-74
2021/07/07 03:08:22;;;;;;;2.92;0.90;;;23.40;96.70;;;;;;4996092;28;20291;-73
2021/07/07 03:10:51;;;;;;;3.67;1.23;;;23.40;96.70;;;;;;4995631;28;20070;-73
2021/07/07 03:13:20;;;;;;;1.95;1.30;;;23.50;96.70;;;;;;5002801;28;20046;-73
2021/07/07 03:15:50;;;;;;;3.90;0.90;;;23.30;96.70;;;;;;5000092;28;20077;-73
2021/07/07 03:18:18;;;;;;;3.30;1.38;;;23.40;96.70;;;;;;4997212;28;20045;-73
2021/07/07 03:20:50;;;;;;;2.53;1.15;;;23.30;96.70;;;;;;4999068;28;20066;-74
2021/07/07 03:23:19;;;;;;;3.08;0.90;;;23.20;96.70;;;;;;4994595;28;20065;-73
2021/07/07 03:25:48;;;;;;;2.65;1.10;;;23.30;96.70;;;;;;5008594;28;20745;-73
2021/07/07 03:28:18;;;;;;;1.77;1.00;;;23.00;96.70;;;;;;5017643;28;20041;-73
2021/07/07 03:30:47;;;;;;;1.27;0.90;;;22.90;96.70;;;;;;4997562;28;20038;-74
2021/07/07 03:33:15;;;;;;;1.83;1.13;;;22.90;96.70;;;;;;4998593;28;20538;-74
2021/07/07 03:35:44;;;;;;;3.17;1.10;;;23.00;96.70;;;;;;4996753;28;20386;-73
2021/07/07 03:38:14;;;;;;;2.17;1.02;;;23.00;96.70;;;;;;4993203;28;20046;-73
2021/07/07 03:40:42;;;;;;;2.10;1.00;;;23.00;96.70;;;;;;4992135;28;20511;-73
2021/07/07 03:43:11;;;;;;;3.05;1.10;;;23.00;96.70;;;;;;4996863;28;20603;-73
2021/07/07 03:45:39;;;;;;;1.38;1.10;;;22.90;96.70;;;;;;4995590;28;20132;-73
2021/07/07 03:48:12;;;;;;;3.05;1.10;;;22.70;96.70;;;;;;4998379;28;20129;-74
2021/07/07 03:50:40;;;;;;;2.85;1.25;;;22.60;96.70;;;;;;5001967;28;20041;-73
2021/07/07 03:53:09;;;;;;;2.60;1.20;;;22.60;96.70;;;;;;4995837;28;20567;-73
2021/07/07 03:55:39;;;;;;;1.88;1.10;;;22.60;96.70;;;;;;4993861;28;20050;-73
2021/07/07 03:58:07;;;;;;;1.40;1.00;;;22.60;96.70;;;;;;4980638;28;20539;-71
2021/07/07 04:00:35;;;;;;;2.67;1.08;;;22.70;96.70;;;;;;4999820;28;20104;-71
2021/07/07 04:03:03;;;;;;;3.45;1.40;;;22.80;96.70;;;;;;4993215;28;20400;-72
2021/07/07 04:05:31;;;;;;;4.20;1.05;;;22.80;96.70;;;;;;4995426;28;20042;-71
2021/07/07 04:08:00;;;;;;;2.92;1.35;;;23.00;96.70;;;;;;4997184;28;20111;-72
2021/07/07 04:10:28;;;;;;;5.07;1.30;;;22.90;96.70;;;;;;4981149;28;20034;-72
2021/07/07 04:12:57;;;;;;;3.08;1.10;;;23.00;96.70;;;;;;4996431;28;20034;-71
2021/07/07 04:15:26;;;;;;;2.10;1.15;;;22.90;96.70;;;;;;4995205;28;20073;-71
2021/07/07 04:17:54;;;;;;;4.50;1.20;;;22.90;96.70;;;;;;4994877;28;20413;-71
2021/07/07 04:20:23;;;;;;;3.60;1.48;;;23.00;96.70;;;;;;4996941;28;20092;-71
2021/07/07 04:22:52;;;;;;;2.70;1.05;;;23.00;96.70;;;;;;4998866;28;20155;-71
2021/07/07 04:25:20;;;;;;;3.05;1.10;;;22.90;96.70;;;;;;5013601;28;20203;-71
2021/07/07 04:27:48;;;;;;;3.90;1.00;;;22.90;96.70;;;;;;4996021;28;20674;-71
2021/07/07 04:30:19;;;;;;;6.05;1.10;;;23.00;96.70;;;;;;4992505;28;20037;-71
2021/07/07 04:32:48;;;;;;;5.03;1.10;;;23.20;96.70;;;;;;4995248;28;20046;-71
2021/07/07 04:35:18;;;;;;;6.72;1.77;;;23.20;96.70;;;;;;5000260;28;20136;-71
2021/07/07 04:37:47;;;;;;;4.50;1.17;;;23.20;96.70;;;;;;4996443;28;20231;-71
2021/07/07 04:40:17;;;;;;;3.63;1.45;;;23.10;96.70;;;;;;4996250;28;20052;-71
2021/07/07 04:42:46;;;;;;;3.92;1.42;;;23.00;96.70;;;;;;5008493;28;20037;-71
2021/07/07 04:45:15;;;;;;;2.10;1.25;;;22.90;96.70;;;;;;5019017;28;20041;-71
2021/07/07 04:47:45;;;;;;;4.68;1.23;;;22.80;96.70;;;;;;5002490;28;20374;-71
2021/07/07 04:50:17;;;;;;;4.32;1.60;;;22.70;96.70;;;;;;5004158;28;20053;-71
2021/07/07 04:52:45;;;;;;;3.50;1.25;;;22.70;96.70;;;;;;4997021;28;20042;-71
2021/07/07 04:55:15;;;;;;;2.33;1.20;;;22.80;96.70;;;;;;5005091;28;20049;-71
2021/07/07 04:57:43;;;;;;;4.43;1.38;;;22.80;96.70;;;;;;5002277;28;20088;-71
2021/07/07 05:00:15;;;;;;;4.28;1.50;;;22.80;96.70;;;;;;4998538;28;20050;-73
2021/07/07 05:02:47;;;;;;;4.82;1.30;;;22.90;96.70;;;;;;5001914;28;20152;-73
2021/07/07 05:05:17;;;;;;;4.07;1.25;;;22.90;96.70;;;;;;5002075;28;20048;-73
2021/07/07 05:07:46;;;;;;;2.88;1.27;;;23.00;96.70;;;;;;5000030;28;20054;-73
2021/07/07 05:10:15;;;;;;;2.88;1.33;;;23.10;96.70;;;;;;5004344;28;20204;-73
2021/07/07 05:12:44;;;;;;;2.38;1.38;;;23.20;96.70;;;;;;4987221;28;20048;-73
2021/07/07 05:15:13;;;;;;;5.10;1.33;;;23.30;96.70;;;;;;5004965;28;20080;-73
2021/07/07 05:17:43;;;;;;;4.25;1.30;;;23.40;96.70;;;;;;5004417;28;20041;-73
2021/07/07 05:20:14;;;;;;;3.47;1.63;;;23.50;96.70;;;;;;5017054;28;20500;-73
2021/07/07 05:22:43;;;;;;;3.83;1.38;;;23.50;96.70;;;;;;5004698;28;20033;-73
2021/07/07 05:25:13;;;;;;;2.63;1.58;;;23.60;96.70;;;;;;4998200;28;20053;-73
2021/07/07 05:27:41;;;;;;;1.73;1.27;;;23.60;96.70;;;;;;4999230;28;20137;-73
2021/07/07 05:30:12;;;;;;;3.88;1.40;;;23.60;96.70;;;;;;5002890;28;20099;-73
2021/07/07 05:32:41;;;;;;;4.63;1.70;;;23.60;96.70;;;;;;5020849;28;20050;-77
2021/07/07 05:35:14;;;;;;;3.58;1.60;;;23.70;96.70;;;;;;4989816;28;20060;-74
2021/07/07 05:37:46;;;;;;;6.25;3.45;;;23.80;96.70;;;;;;5009861;28;20045;-73
2021/07/07 05:40:16;;;;;;;9.25;5.78;;;23.90;96.70;;;;;;5004160;28;20046;-74
2021/07/07 05:42:49;;;;;;;9.60;5.32;;;23.80;96.70;;;;;;5010989;28;20057;-74
2021/07/07 05:45:18;;;;;;;6.40;3.78;;;23.90;96.70;;;;;;4999900;28;20049;-75
2021/07/07 05:47:46;;;;;;;12.00;3.35;;;24.00;96.70;;;;;;5001109;28;20045;-75
2021/07/07 05:50:22;;;;;;;9.95;3.10;;;24.10;96.70;;;;;;4990819;28;20042;-75
2021/07/07 05:52:51;;;;;;;6.75;3.13;;;23.90;96.70;;;;;;5008786;28;20052;-74
2021/07/07 05:55:20;;;;;;;7.63;3.05;;;24.00;96.70;;;;;;4999476;28;20471;-74
2021/07/07 05:57:49;;;;;;;3.80;1.80;;;24.00;96.70;;;;;;4984480;28;20140;-74
2021/07/07 06:00:20;;;;;;;5.20;2.30;;;24.00;96.70;;;;;;4996486;28;20589;-75
2021/07/07 06:02:51;;;;;;;5.35;1.98;;;24.10;96.70;;;;;;5002029;28;20295;-74
2021/07/07 06:05:22;;;;;;;4.80;2.38;;;24.10;96.70;;;;;;5020172;28;20446;-75
2021/07/07 06:07:52;;;;;;;4.60;1.92;;;24.20;96.70;;;;;;5000784;28;20233;-75
2021/07/07 06:10:25;;;;;;;4.78;1.80;;;24.30;96.70;;;;;;5006947;28;20048;-75
2021/07/07 06:12:54;;;;;;;6.65;2.13;;;24.40;96.70;;;;;;4997494;28;20295;-74
2021/07/07 06:15:23;;;;;;;5.88;2.10;;;24.50;96.70;;;;;;5006307;28;20533;-75
2021/07/07 06:17:51;;;;;;;4.70;1.77;;;24.60;96.70;;;;;;5005976;28;20384;-74
2021/07/07 06:20:22;;;;;;;3.13;1.77;;;24.60;96.70;;;;;;5021789;28;20050;-74
2021/07/07 06:22:51;;;;;;;5.20;2.35;;;24.70;96.70;;;;;;5001675;28;20038;-74
2021/07/07 06:25:19;;;;;;;3.30;1.75;;;24.50;96.70;;;;;;4998470;28;20041;-75
2021/07/07 06:27:48;;;;;;;6.65;1.88;;;24.50;96.70;;;;;;5001133;28;20084;-75
2021/07/07 06:30:20;;;;;;;4.20;1.58;;;24.60;96.70;;;;;;4998236;28;20415;-76
2021/07/07 06:32:49;;;;;;;6.05;2.03;;;24.80;96.70;;;;;;5020475;28;20161;-75
2021/07/07 06:35:19;;;;;;;4.28;1.90;;;24.90;96.70;;;;;;5002846;28;20050;-75
2021/07/07 06:37:49;;;;;;;4.65;1.70;;;25.00;96.70;;;;;;5000267;28;20038;-76
2021/07/07 06:40:19;;;;;;;4.97;1.65;;;25.00;96.70;;;;;;4987539;28;20049;-76
2021/07/07 06:42:47;;;;;;;3.38;1.45;;;25.10;96.70;;;;;;4991972;28;20143;-76
2021/07/07 06:45:18;;;;;;;4.10;2.00;;;25.20;96.70;;;;;;5001438;28;20042;-76
2021/07/07 06:47:49;;;;;;;5.25;2.00;;;25.20;96.70;;;;;;5001458;28;20132;-76
2021/07/07 06:50:18;;;;;;;2.70;1.75;;;25.30;96.70;;;;;;5004482;28;20050;-75
2021/07/07 06:52:48;;;;;;;5.65;2.00;;;25.30;96.70;;;;;;5007939;28;20046;-73
2021/07/07 06:55:17;;;;;;;4.15;1.80;;;25.40;96.70;;;;;;5020402;28;20044;-73
2021/07/07 06:57:47;;;;;;;6.60;1.80;;;25.40;96.70;;;;;;4999840;28;20079;-74
2021/07/07 07:00:17;;;;;;;4.18;1.70;;;25.50;96.70;;;;;;4997451;28;20467;-73
2021/07/07 07:02:46;;;;;;;4.38;1.52;;;25.60;96.70;;;;;;5013855;28;20041;-73
2021/07/07 07:05:17;;;;;;;6.38;1.88;;;25.60;96.70;;;;;;5013706;28;20703;-73
2021/07/07 07:07:47;;;;;;;3.30;1.63;;;25.70;96.70;;;;;;5007151;28;20046;-73
2021/07/07 07:10:16;;;;;;;5.05;1.55;;;25.80;96.70;;;;;;5009253;28;20046;-74
2021/07/07 07:12:45;;;;;;;3.28;1.83;;;25.80;96.40;;;;;;5009120;28;20109;-73
2021/07/07 07:15:15;;;;;;;3.55;2.00;;;25.90;96.30;;;;;;5011471;28;20049;-73
2021/07/07 07:17:44;;;;;;;3.42;1.58;;;25.90;96.70;;;;;;5020821;28;20088;-73
2021/07/07 07:20:14;;;;;;;4.95;1.95;;;26.00;96.40;;;;;;5008847;28;20046;-73
2021/07/07 07:22:43;;;;;;;4.60;1.92;;;26.10;95.80;;;;;;5010387;28;20042;-73
2021/07/07 07:25:14;;;;;;;8.18;2.13;;;26.20;95.20;;;;;;5011661;28;20164;-73
2021/07/07 07:27:43;;;;;;;7.95;2.10;;;26.20;95.70;;;;;;5011770;28;20574;-73
2021/07/07 07:30:12;;;;;;;4.63;1.85;;;26.30;95.60;;;;;;5014745;28;20037;-73
2021/07/07 07:32:44;;;;;;;4.40;2.00;;;26.30;95.50;;;;;;5009255;28;20037;-74
2021/07/07 07:35:14;;;;;;;4.85;1.77;;;26.30;95.40;;;;;;5004726;28;20045;-73
2021/07/07 07:38:00;;;;;;;5.00;1.90;;;26.40;95.20;;;;;;5010659;28;20467;-73
2021/07/07 07:40:38;;;;;;;6.63;1.83;;;26.40;94.80;;;;;;5008323;28;20054;-73
2021/07/07 07:43:08;;;;;;;7.25;1.92;;;26.50;95.10;;;;;;5001214;28;20115;-73
2021/07/07 07:45:38;;;;;;;3.72;1.73;;;26.60;94.70;;;;;;5011055;28;20109;-73
2021/07/07 07:48:07;;;;;;;7.20;1.73;;;26.60;95.20;;;;;;5008452;28;20054;-73
2021/07/07 07:50:36;;;;;;;4.85;1.80;;;26.70;94.70;;;;;;5019288;28;20050;-73
2021/07/07 07:53:04;;;;;;;3.00;1.60;;;26.70;94.40;;;;;;5011162;28;20045;-73
2021/07/07 07:55:34;;;;;;;4.00;1.30;;;26.80;93.70;;;;;;5012918;28;20042;-73
2021/07/07 07:58:03;;;;;;;3.33;1.70;;;26.90;93.70;;;;;;5007380;28;20175;-73
2021/07/07 08:00:31;;;;;;;6.80;1.85;;;26.90;93.90;;;;;;5005823;28;20056;-74
2021/07/07 08:03:00;;;;;;;5.85;1.58;;;26.90;92.90;;;;;;5025414;28;20623;-73
2021/07/07 08:05:28;;;;;;;3.20;1.65;;;26.90;93.60;;;;;;5002875;28;20072;-73
2021/07/07 08:08:01;;;;;;;3.75;1.75;;;27.10;93.80;;;;;;5009574;28;20072;-72
2021/07/07 08:10:30;;;;;;;5.78;1.65;;;27.20;92.80;;;;;;5019160;28;20065;-73
2021/07/07 08:13:00;;;;;;;3.33;1.40;;;27.20;92.00;;;;;;4990315;28;20042;-72
2021/07/07 08:15:29;;;;;;;3.83;1.50;;;27.20;91.30;;;;;;5007084;28;20046;-73
2021/07/07 08:17:58;;;;;;;5.05;1.60;;;27.30;91.80;;;;;;5008650;28;20538;-73
2021/07/07 08:20:27;;;;;;;3.72;1.83;;;27.40;91.50;;;;;;5010445;28;20556;-73
2021/07/07 08:22:55;;;;;;;4.75;1.55;;;27.50;91.40;;;;;;5007643;28;20057;-73
2021/07/07 08:25:25;;;;;;;1.85;1.35;;;27.60;91.10;;;;;;5006047;28;20057;-72
2021/07/07 08:27:55;;;;;;;3.72;1.63;;;27.70;90.70;;;;;;5007990;28;20065;-72
2021/07/07 08:30:25;;;;;;;2.53;1.27;;;27.80;89.60;;;;;;5015211;28;20077;-72
2021/07/07 08:32:53;;;;;;;1.95;1.25;;;27.80;88.40;;;;;;5008559;28;20710;-72
2021/07/07 08:35:22;;;;;;;2.25;1.30;;;27.90;87.60;;;;;;5005043;28;20046;-72
2021/07/07 08:37:50;;;;;;;3.72;1.75;;;28.00;87.00;;;;;;5007331;28;20075;-72
2021/07/07 08:40:19;;;;;;;3.90;1.17;;;28.00;86.80;;;;;;5013273;28;20049;-72
2021/07/07 08:42:50;;;;;;;5.35;1.17;;;28.10;87.40;;;;;;5009075;28;20049;-72
2021/07/07 08:45:19;;;;;;;2.42;1.00;;;28.20;86.50;;;;;;5014213;28;20046;-72
2021/07/07 08:47:49;;;;;;;2.58;1.30;;;28.30;85.90;;;;;;5004958;28;20042;-72
2021/07/07 08:50:19;;;;;;;3.40;1.10;;;28.40;85.30;;;;;;5007510;28;20042;-72
2021/07/07 08:52:48;;;;;;;4.28;1.20;;;28.50;86.00;;;;;;5006750;28;20046;-73
2021/07/07 08:55:18;;;;;;;2.20;1.05;;;28.50;85.30;;;;;;4993139;28;20150;-72
2021/07/07 08:57:47;;;;;;;3.28;1.40;;;28.60;85.20;;;;;;5006894;28;20046;-72
2021/07/07 09:00:19;;;;;;;3.40;1.20;;;28.70;84.70;;;;;;5006457;28;20105;-73
2021/07/07 09:02:54;;;;;;;3.58;1.65;;;28.80;84.60;;;;;;5001530;28;20061;-72
2021/07/07 09:05:25;;;;;;;2.72;1.00;;;28.90;84.00;;;;;;5010845;28;20518;-72
2021/07/07 09:07:54;;;;;;;5.28;1.17;;;28.90;84.00;;;;;;5005064;28;20049;-72
2021/07/07 09:10:30;;;;;;;5.72;1.30;;;29.00;83.40;;;;;;5008311;28;20503;-73
2021/07/07 09:13:09;;;;;;;5.28;1.63;;;29.20;84.00;;;;;;5007331;28;20053;-72
2021/07/07 09:15:38;;;;;;;4.25;1.15;;;29.30;82.90;;;;;;5006209;28;20049;-72
2021/07/07 09:18:17;;;;;;;4.85;1.42;;;29.30;83.00;;;;;;5001299;28;20077;-73
2021/07/07 09:20:48;;;;;;;4.93;1.30;;;29.40;82.40;;;;;;5010284;28;20042;-73
2021/07/07 09:23:21;;;;;;;4.85;1.52;;;29.40;82.40;;;;;;5009451;28;20511;-74
2021/07/07 09:25:52;;;;;;;2.67;1.50;;;29.50;81.70;;;;;;5007575;28;20499;-73
2021/07/07 09:28:22;;;;;;;4.80;1.60;;;29.60;82.40;;;;;;5012291;28;20037;-73
2021/07/07 09:31:00;;;;;;;2.40;1.42;;;29.70;80.70;;;;;;4991762;28;20460;-73
2021/07/07 09:33:39;;;;;;;3.83;1.67;;;29.70;81.40;;;;;;5010576;28;20088;-73
2021/07/07 09:36:18;;;;;;;3.60;1.33;;;29.60;81.80;;;;;;5008974;28;20120;-73
2021/07/07 09:38:47;;;;;;;3.63;1.42;;;29.80;82.30;;;;;;5021110;28;20054;-73
2021/07/07 09:41:16;;;;;;;3.30;1.40;;;29.90;81.00;;;;;;5012508;28;20042;-73
2021/07/07 09:43:48;;;;;;;3.38;1.40;;;29.90;80.90;;;;;;5010709;28;20053;-73
2021/07/07 09:46:17;;;;;;;5.43;1.70;;;30.00;80.20;;;;;;5009873;28;20126;-74
2021/07/07 09:48:48;;;;;;;2.95;1.40;;;30.10;80.00;;;;;;5024625;28;20061;-74
2021/07/07 09:51:17;;;;;;;5.25;1.38;;;30.20;80.00;;;;;;5007941;28;20073;-74
2021/07/07 09:53:46;;;;;;;4.25;1.45;;;30.10;79.60;;;;;;5009504;28;20515;-74
2021/07/07 09:56:14;;;;;;;3.67;1.27;;;30.10;80.20;;;;;;5010674;28;20524;-74
2021/07/07 09:58:43;;;;;;;5.35;1.63;;;30.40;80.90;;;;;;5010119;28;20050;-74
2021/07/07 10:01:12;;;;;;;1.83;1.40;;;30.50;79.40;;;;;;5010305;28;20034;-73
2021/07/07 10:03:41;;;;;;;4.65;1.40;;;30.60;79.40;;;;;;5016448;28;20061;-74
2021/07/07 10:06:13;;;;;;;2.25;1.38;;;30.70;78.80;;;;;;5008565;28;20627;-74
2021/07/07 10:08:43;;;;;;;2.90;1.50;;;30.70;78.90;;;;;;5019782;28;20507;-74
2021/07/07 10:11:12;;;;;;;4.15;1.20;;;30.80;79.70;;;;;;5011344;28;20087;-74
2021/07/07 10:13:41;;;;;;;3.67;1.20;;;31.00;79.50;;;;;;4997057;28;20054;-74
2021/07/07 10:16:09;;;;;;;3.83;1.55;;;31.20;79.20;;;;;;5008388;28;20050;-74
2021/07/07 10:18:38;;;;;;;2.55;1.00;;;31.20;78.70;;;;;;5013762;28;20128;-74
2021/07/07 10:21:08;;;;;;;4.57;1.60;;;31.20;79.00;;;;;;5007326;28;20221;-74
2021/07/07 10:23:39;;;;;;;2.90;1.20;;;31.20;78.20;;;;;;5008445;28;20096;-74
2021/07/07 10:26:09;;;;;;;2.80;1.27;;;31.30;77.60;;;;;;5011070;28;20545;-74
2021/07/07 10:28:38;;;;;;;4.45;1.30;;;31.30;78.40;;;;;;5004000;28;20042;-74
2021/07/07 10:31:07;;;;;;;3.70;1.00;;;31.40;77.70;;;;;;5017746;28;20521;-74
2021/07/07 10:33:37;;;;;;;2.10;1.10;;;31.30;77.90;;;;;;5009053;28;20056;-74
2021/07/07 10:36:17;;;;;;;5.15;1.05;;;31.50;76.90;;;;;;5013403;28;20042;-74
2021/07/07 10:38:56;;;;;;;3.55;1.05;;;31.50;77.30;;;;;;5039523;28;20060;-74
2021/07/07 10:41:47;;;;;;;5.15;1.23;;;31.50;77.40;;;;;;5020228;28;20046;-74
2021/07/07 10:44:50;;;;;;;2.30;1.25;;;31.80;77.00;;;;;;5007841;28;20052;-74
2021/07/07 10:47:38;;;;;;;3.85;0.95;;;32.00;77.60;;;;;;5014641;28;20057;-74
2021/07/07 10:50:09;;;;;;;3.03;1.30;;;32.20;76.50;;;;;;5013829;28;20484;-74
2021/07/07 10:52:44;;;;;;;3.10;1.30;;;32.20;76.60;;;;;;5007951;28;20050;-74
2021/07/07 10:55:16;;;;;;;2.05;0.93;;;32.40;77.00;;;;;;5012289;28;20504;-74
2021/07/07 10:57:46;;;;;;;1.90;1.20;;;32.40;75.90;;;;;;5013437;28;20070;-74
2021/07/07 11:00:31;;;;;;;2.97;0.88;;;32.30;75.60;;;;;;5013802;28;20140;-74
2021/07/07 11:03:21;;;;;;;4.10;1.30;;;32.40;75.90;;;;;;5002743;28;20408;-75
2021/07/07 11:05:50;;;;;;;2.85;0.90;;;32.50;75.90;;;;;;5010609;28;20080;-74
2021/07/07 11:08:20;;;;;;;2.47;1.20;;;32.60;75.30;;;;;;5008490;28;20177;-74
2021/07/07 11:10:55;;;;;;;6.75;1.10;;;32.70;75.30;;;;;;5017257;28;20100;-75
2021/07/07 11:13:24;;;;;;;2.25;0.93;;;32.70;75.90;;;;;;5010353;28;20049;-74
2021/07/07 11:15:52;;;;;;;1.52;0.90;;;32.90;75.60;;;;;;5009473;28;20057;-74
2021/07/07 11:18:24;;;;;;;2.80;0.93;;;33.00;74.70;;;;;;5006233;28;20164;-74
2021/07/07 11:21:04;;;;;;;3.67;0.93;;;32.90;75.20;;;;;;5014812;28;20046;-74
2021/07/07 11:23:33;;;;;;;3.22;1.23;;;33.00;74.40;;;;;;5009417;28;20499;-74
2021/07/07 11:26:03;;;;;;;2.88;1.02;;;33.00;74.70;;;;;;5012511;28;20054;-74
2021/07/07 11:28:32;;;;;;;1.75;1.00;;;33.00;74.10;;;;;;5009650;28;20042;-74
2021/07/07 11:31:01;;;;;;;5.20;1.52;;;33.10;74.40;;;;;;5013492;28;20052;-74
2021/07/07 11:33:30;;;;;;;4.65;1.13;;;33.20;74.80;;;;;;5008390;28;20051;-74
2021/07/07 11:35:58;;;;;;;2.75;1.23;;;33.30;74.50;;;;;;5009367;28;20045;-74
2021/07/07 11:38:28;;;;;;;4.10;1.20;;;33.30;74.80;;;;;;5009208;28;20038;-74
2021/07/07 11:40:58;;;;;;;2.55;1.10;;;33.50;74.70;;;;;;5006978;28;20045;-74
2021/07/07 11:43:31;;;;;;;1.35;0.95;;;33.50;73.80;;;;;;5012181;28;20125;-74
2021/07/07 11:46:01;;;;;;;2.72;1.23;;;33.50;73.60;;;;;;5007110;28;20419;-74
2021/07/07 11:51:07;;;;;;;4.15;1.27;;;33.70;73.50;;;;;;5005825;28;20074;-74
2021/07/07 11:53:38;;;;;;;3.80;1.20;;;33.70;74.70;;;;;;4991883;28;20054;-74
2021/07/07 11:56:08;;;;;;;2.22;1.50;;;33.80;73.60;;;;;;5005654;28;20411;-73
2021/07/07 11:58:44;;;;;;;2.08;1.05;;;34.00;73.30;;;;;;5007303;28;20049;-74
2021/07/07 12:01:18;;;;;;;2.33;1.05;;;34.00;73.60;;;;;;5003180;28;20044;-74
2021/07/07 12:03:55;;;;;;;3.42;1.10;;;34.10;73.30;;;;;;4985939;28;20050;-76
2021/07/07 12:06:32;;;;;;;3.97;1.20;;;34.00;72.90;;;;;;5005553;28;20046;-74
2021/07/07 12:09:02;;;;;;;1.00;0.82;;;34.20;73.70;;;;;;5004762;28;20083;-74
2021/07/07 12:11:31;;;;;;;1.85;1.15;;;34.50;73.30;;;;;;5004928;28;20139;-73
2021/07/07 12:14:09;;;;;;;4.57;1.17;;;34.70;73.00;;;;;;5007450;28;20056;-74
2021/07/07 12:16:40;;;;;;;2.47;0.90;;;34.80;72.00;;;;;;4999987;28;20124;-73
2021/07/07 12:19:12;;;;;;;3.80;1.10;;;34.60;72.00;;;;;;5001957;28;20050;-74
2021/07/07 12:21:44;;;;;;;3.30;1.00;;;34.60;72.90;;;;;;5010906;28;20133;-74
2021/07/07 12:24:15;;;;;;;2.33;1.00;;;34.60;72.20;;;;;;5004698;28;20054;-74
2021/07/07 12:26:45;;;;;;;3.17;0.90;;;34.50;72.90;;;;;;5008129;28;20113;-74
2021/07/07 12:29:19;;;;;;;2.28;1.05;;;34.60;72.50;;;;;;4989369;28;20465;-74
2021/07/07 12:31:50;;;;;;;2.17;1.00;;;34.60;72.60;;;;;;5014824;28;20069;-74
2021/07/07 12:34:25;;;;;;;3.03;1.10;;;34.70;72.70;;;;;;5007000;28;20061;-74
2021/07/07 12:36:55;;;;;;;2.03;1.27;;;34.80;72.60;;;;;;5011675;28;20554;-74
2021/07/07 12:39:26;;;;;;;2.78;1.15;;;34.90;72.90;;;;;;5021765;28;20470;-74
2021/07/07 12:42:02;;;;;;;4.57;1.38;;;35.10;72.40;;;;;;5011079;28;20483;-74
2021/07/07 12:44:33;;;;;;;1.67;1.02;;;35.10;72.20;;;;;;5000837;28;20045;-74
2021/07/07 12:47:04;;;;;;;3.10;1.10;;;34.80;71.40;;;;;;5003671;28;20096;-74
2021/07/07 12:49:45;;;;;;;3.30;1.50;;;34.50;72.20;;;;;;5006127;28;20396;-74
2021/07/07 12:52:25;;;;;;;6.82;1.40;;;34.80;72.90;;;;;;5007657;28;20465;-74
2021/07/07 12:55:12;;;;;;;3.25;1.45;;;35.00;72.30;;;;;;5007868;28;20045;-73
2021/07/07 12:57:44;;;;;;;;;;;35.20;72.70;;;;;;5002121;28;20076;-74
2021/07/07 13:00:16;;;;;;;2.67;1.10;;;35.40;71.50;;;;;;5008603;28;20307;-74
2021/07/07 13:02:53;;;;;;;2.05;1.10;;;35.50;71.20;;;;;;5009682;28;20073;-73
2021/07/07 13:05:33;;;;;;;1.98;1.08;;;35.70;71.10;;;;;;5013985;28;20046;-74
2021/07/07 13:08:05;;;;;;;2.38;1.20;;;35.90;70.30;;;;;;5012004;28;20053;-74